createdAt,value
2018-09-15T00:00:48.014Z,54.00
2018-09-15T00:03:15.791Z,54.97
2018-09-15T00:05:43.667Z,55.32
2018-09-15T00:08:11.599Z,55.21
2018-09-15T00:10:39.444Z,55.91
2018-09-15T00:13:07.368Z,55.00
2018-09-15T00:15:35.225Z,54.75
2018-09-15T00:18:05.294Z,55.43
2018-09-15T00:20:33.063Z,54.55
2018-09-15T00:23:00.936Z,54.01
2018-09-15T00:25:28.779Z,54.25
2018-09-15T00:27:56.530Z,53.96
2018-09-15T00:30:24.387Z,54.19
2018-09-15T00:32:52.165Z,53.44
2018-09-15T00:35:20.277Z,53.87
2018-09-15T00:37:48.171Z,53.97
2018-09-15T00:40:15.944Z,53.69
2018-09-15T00:42:44.068Z,53.52
2018-09-15T00:45:12.096Z,53.66
2018-09-15T00:47:39.901Z,53.79
2018-09-15T00:50:07.831Z,53.88
2018-09-15T00:52:35.669Z,53.59
2018-09-15T00:55:03.656Z,53.08
2018-09-15T00:57:31.419Z,53.84
2018-09-15T00:59:59.335Z,53.46
2018-09-15T01:02:27.275Z,53.55
2018-09-15T01:04:55.124Z,53.97
2018-09-15T01:07:22.963Z,55.34
2018-09-15T01:09:54.320Z,54.73
2018-09-15T01:12:22.236Z,55.99
2018-09-15T01:14:50.043Z,56.28
2018-09-15T01:17:17.927Z,56.12
2018-09-15T01:19:45.972Z,56.25
2018-09-15T01:22:13.824Z,55.44
2018-09-15T01:24:41.675Z,55.48
2018-09-15T01:27:09.549Z,57.78
2018-09-15T01:29:37.272Z,55.91
2018-09-15T01:32:05.166Z,55.69
2018-09-15T01:34:33.063Z,55.51
2018-09-15T01:37:01.217Z,55.40
2018-09-15T01:39:29.049Z,55.10
2018-09-15T01:41:56.857Z,55.96
2018-09-15T01:44:24.655Z,56.02
2018-09-15T01:46:52.479Z,57.16
2018-09-15T01:49:20.275Z,56.50
2018-09-15T01:51:48.119Z,55.91
2018-09-15T01:54:16.504Z,57.20
2018-09-15T01:56:44.271Z,60.52
2018-09-15T01:59:12.071Z,59.04
2018-09-15T02:01:39.880Z,59.78
2018-09-15T02:04:08.123Z,57.87
2018-09-15T02:06:35.988Z,58.52
2018-09-15T02:09:09.667Z,58.23
2018-09-15T02:11:37.509Z,58.22
2018-09-15T02:14:05.381Z,59.62
2018-09-15T02:16:33.204Z,60.03
2018-09-15T02:19:01.064Z,63.55
2018-09-15T02:21:28.915Z,59.52
2018-09-15T02:23:56.754Z,59.18
2018-09-15T02:26:24.575Z,58.11
2018-09-15T02:28:52.439Z,57.80
2018-09-15T02:31:20.274Z,59.61
2018-09-15T02:33:48.069Z,57.52
2018-09-15T02:36:16.291Z,57.41
2018-09-15T02:38:44.293Z,57.87
2018-09-15T02:41:12.368Z,57.70
2018-09-15T02:43:40.217Z,57.74
2018-09-15T02:46:07.992Z,57.07
2018-09-15T02:48:35.755Z,57.45
2018-09-15T02:51:03.661Z,57.15
2018-09-15T02:53:31.471Z,58.10
2018-09-15T02:55:59.321Z,57.64
2018-09-15T02:58:27.212Z,57.70
2018-09-15T03:00:55.012Z,57.33
2018-09-15T03:03:22.819Z,57.65
2018-09-15T03:05:50.655Z,58.05
2018-09-15T03:08:18.476Z,60.43
2018-09-15T03:10:46.302Z,58.47
2018-09-15T03:13:14.140Z,59.59
2018-09-15T03:15:41.943Z,58.92
2018-09-15T03:18:09.784Z,59.48
2018-09-15T03:20:37.652Z,59.80
2018-09-15T03:23:05.656Z,59.23
2018-09-15T03:25:33.427Z,59.70
2018-09-15T03:28:01.255Z,60.23
2018-09-15T03:30:29.072Z,60.74
2018-09-15T03:32:56.891Z,60.00
2018-09-15T03:35:24.772Z,59.91
2018-09-15T03:37:52.539Z,60.11
2018-09-15T03:40:20.360Z,60.18
2018-09-15T03:42:52.515Z,60.26
2018-09-15T03:45:20.379Z,60.27
2018-09-15T03:47:48.210Z,60.49
2018-09-15T03:50:16.041Z,59.76
2018-09-15T03:52:43.881Z,60.65
2018-09-15T03:55:11.679Z,60.17
2018-09-15T03:57:39.484Z,60.36
2018-09-15T04:00:07.449Z,61.15
2018-09-15T04:02:35.297Z,60.82
2018-09-15T04:05:03.232Z,61.31
2018-09-15T04:07:30.996Z,60.83
2018-09-15T04:09:58.895Z,61.35
2018-09-15T04:12:26.675Z,62.50
2018-09-15T04:14:54.499Z,62.50
2018-09-15T04:17:22.373Z,62.49
2018-09-15T04:19:50.217Z,62.73
2018-09-15T04:22:18.003Z,62.87
2018-09-15T04:24:45.816Z,67.46
2018-09-15T04:27:13.701Z,63.98
2018-09-15T04:29:41.483Z,63.41
2018-09-15T04:32:09.307Z,64.89
2018-09-15T04:34:37.172Z,63.54
2018-09-15T04:37:05.051Z,63.90
2018-09-15T04:39:32.895Z,63.35
2018-09-15T04:42:00.744Z,63.30
2018-09-15T04:44:28.583Z,62.76
2018-09-15T04:46:59.960Z,65.57
2018-09-15T04:49:27.815Z,63.77
2018-09-15T04:51:55.687Z,64.31
2018-09-15T04:54:23.540Z,64.86
2018-09-15T04:56:51.352Z,64.63
2018-09-15T04:59:19.183Z,64.71
2018-09-15T05:01:47.049Z,64.74
2018-09-15T05:04:14.941Z,64.33
2018-09-15T05:06:42.803Z,65.27
2018-09-15T05:09:11.788Z,65.81
2018-09-15T05:11:39.657Z,64.80
2018-09-15T05:14:07.451Z,64.83
2018-09-15T05:16:35.322Z,65.54
2018-09-15T05:19:03.175Z,66.47
2018-09-15T05:21:31.031Z,66.87
2018-09-15T05:23:58.924Z,66.73
2018-09-15T05:26:26.695Z,66.82
2018-09-15T05:28:54.629Z,68.50
2018-09-15T05:31:22.505Z,68.24
2018-09-15T05:33:56.938Z,73.83
2018-09-15T05:36:26.231Z,68.96
2018-09-15T05:38:55.013Z,73.56
2018-09-15T05:41:23.037Z,76.07
2018-09-15T05:43:54.119Z,76.11
2018-09-15T05:46:24.705Z,74.47
2018-09-15T05:48:52.578Z,77.77
2018-09-15T05:51:21.209Z,71.35
2018-09-15T05:53:49.087Z,73.82
2018-09-15T05:56:16.944Z,69.80
2018-09-15T05:58:44.807Z,70.43
2018-09-15T06:01:12.669Z,72.04
2018-09-15T06:03:40.531Z,69.98
2018-09-15T06:06:08.457Z,70.47
2018-09-15T06:08:36.280Z,69.37
2018-09-15T06:11:04.809Z,69.48
2018-09-15T06:13:32.966Z,69.60
2018-09-15T06:16:01.580Z,70.35
2018-09-15T06:18:30.198Z,74.45
2018-09-15T06:20:58.002Z,73.24
2018-09-15T06:23:25.836Z,72.15
2018-09-15T06:25:53.729Z,72.75
2018-09-15T06:28:31.705Z,71.56
2018-09-15T06:30:59.755Z,70.22
2018-09-15T06:33:27.560Z,69.81
2018-09-15T06:35:59.513Z,69.47
2018-09-15T06:38:27.428Z,69.37
2018-09-15T06:40:55.292Z,68.63
2018-09-15T06:43:23.136Z,68.15
2018-09-15T06:45:51.119Z,68.02
2018-09-15T06:48:18.872Z,67.18
2018-09-15T06:50:46.779Z,66.55
2018-09-15T06:53:14.573Z,66.44
2018-09-15T06:55:42.458Z,66.19
2018-09-15T06:58:10.249Z,65.64
2018-09-15T07:00:38.105Z,65.49
2018-09-15T07:03:05.911Z,65.74
2018-09-15T07:05:33.755Z,65.54
2018-09-15T07:08:01.597Z,65.13
2018-09-15T07:10:29.455Z,65.39
2018-09-15T07:12:57.383Z,65.03
2018-09-15T07:15:25.196Z,64.31
2018-09-15T07:17:53.063Z,64.63
2018-09-15T07:20:20.892Z,64.12
2018-09-15T07:22:48.659Z,64.10
2018-09-15T07:25:16.566Z,63.94
2018-09-15T07:27:44.329Z,63.59
2018-09-15T07:30:12.100Z,63.28
2018-09-15T07:32:39.947Z,63.01
2018-09-15T07:35:07.723Z,63.02
2018-09-15T07:37:37.455Z,62.13
2018-09-15T07:40:09.538Z,61.92
2018-09-15T07:42:38.555Z,61.99
2018-09-15T07:45:06.411Z,61.22
2018-09-15T07:47:34.288Z,60.45
2018-09-15T07:50:02.124Z,60.33
2018-09-15T07:52:30.533Z,59.87
2018-09-15T07:54:58.371Z,59.06
2018-09-15T07:57:26.696Z,59.50
2018-09-15T08:00:04.628Z,58.37
2018-09-15T08:02:37.517Z,58.24
2018-09-15T08:05:05.474Z,59.43
2018-09-15T08:07:33.474Z,59.46
2018-09-15T08:10:02.026Z,57.86
2018-09-15T08:12:29.889Z,56.25
2018-09-15T08:14:57.732Z,54.69
2018-09-15T08:17:25.807Z,55.97
2018-09-15T08:19:54.107Z,55.64
2018-09-15T08:22:21.947Z,54.40
2018-09-15T08:24:50.874Z,53.87
2018-09-15T08:27:18.805Z,54.30
2018-09-15T08:29:46.614Z,54.15
2018-09-15T08:32:14.435Z,52.61
2018-09-15T08:34:42.240Z,53.69
2018-09-15T08:37:10.080Z,53.46
2018-09-15T08:39:37.854Z,51.71
2018-09-15T08:42:05.816Z,54.21
2018-09-15T08:44:37.860Z,54.40
2018-09-15T08:47:06.375Z,54.15
2018-09-15T08:49:34.187Z,53.28
2018-09-15T08:52:02.027Z,52.27
2018-09-15T08:54:29.855Z,50.90
2018-09-15T08:56:57.682Z,51.02
2018-09-15T08:59:25.495Z,52.12
2018-09-15T09:01:53.390Z,52.04
2018-09-15T09:04:21.244Z,50.78
2018-09-15T09:06:49.496Z,48.60
2018-09-15T09:09:17.375Z,50.76
2018-09-15T09:11:45.180Z,51.26
2018-09-15T09:14:12.913Z,49.94
2018-09-15T09:16:40.787Z,48.25
2018-09-15T09:19:08.685Z,52.55
2018-09-15T09:21:36.574Z,51.14
2018-09-15T09:24:04.399Z,50.78
2018-09-15T09:26:32.468Z,49.69
2018-09-15T09:29:00.165Z,51.97
2018-09-15T09:31:28.104Z,51.26
2018-09-15T09:33:55.974Z,48.52
2018-09-15T09:36:23.807Z,47.92
2018-09-15T09:38:51.656Z,47.46
2018-09-15T09:41:19.440Z,45.42
2018-09-15T09:43:47.188Z,45.41
2018-09-15T09:48:52.316Z,46.94
2018-09-15T09:51:20.096Z,43.48
2018-09-15T09:53:47.906Z,45.20
2018-09-15T09:56:15.792Z,41.29
2018-09-15T09:58:43.744Z,41.15
2018-09-15T10:01:17.322Z,45.48
2018-09-15T10:03:45.048Z,41.63
2018-09-15T10:06:12.867Z,39.86
2018-09-15T10:08:40.735Z,42.34
2018-09-15T10:11:08.620Z,41.11
2018-09-15T10:13:36.487Z,40.66
2018-09-15T10:16:04.385Z,40.20
2018-09-15T10:18:32.223Z,38.62
2018-09-15T10:21:00.070Z,39.06
2018-09-15T10:23:27.872Z,40.03
2018-09-15T10:25:55.739Z,39.39
2018-09-15T10:28:23.655Z,38.92
2018-09-15T10:30:51.516Z,38.22
2018-09-15T10:33:19.316Z,37.76
2018-09-15T10:35:47.148Z,36.23
2018-09-15T10:38:14.991Z,35.20
2018-09-15T10:40:42.711Z,36.19
2018-09-15T10:43:10.630Z,34.28
2018-09-15T10:45:38.411Z,32.70
2018-09-15T10:48:06.523Z,30.70
2018-09-15T10:50:34.565Z,31.92
2018-09-15T10:53:02.442Z,33.27
2018-09-15T10:55:30.449Z,32.24
2018-09-15T10:57:58.259Z,31.86
2018-09-15T11:00:26.225Z,31.64
2018-09-15T11:02:54.002Z,29.63
2018-09-15T11:05:21.797Z,30.47
2018-09-15T11:07:49.584Z,29.52
2018-09-15T11:10:17.342Z,29.11
2018-09-15T11:12:45.287Z,28.70
2018-09-15T11:15:13.215Z,29.55
2018-09-15T11:17:41.092Z,29.40
2018-09-15T11:20:08.939Z,30.01
2018-09-15T11:22:36.839Z,31.12
2018-09-15T11:25:04.671Z,32.07
2018-09-15T11:27:33.016Z,31.63
2018-09-15T11:30:00.907Z,31.06
2018-09-15T11:32:28.735Z,29.90
2018-09-15T11:34:56.955Z,31.21
2018-09-15T11:37:24.896Z,29.61
2018-09-15T11:39:52.703Z,31.18
2018-09-15T11:42:22.596Z,33.14
2018-09-15T11:44:50.524Z,30.06
2018-09-15T11:47:18.381Z,30.80
2018-09-15T11:49:46.537Z,30.58
2018-09-15T11:52:14.620Z,30.76
2018-09-15T11:54:42.724Z,30.43
2018-09-15T11:57:13.884Z,31.32
2018-09-15T11:59:43.491Z,29.15
2018-09-15T12:02:11.639Z,29.95
2018-09-15T12:04:39.508Z,31.47
2018-09-15T12:07:07.303Z,30.01
2018-09-15T12:09:35.115Z,29.03
2018-09-15T12:12:02.970Z,29.75
2018-09-15T12:14:30.820Z,28.93
2018-09-15T12:16:58.639Z,28.05
2018-09-15T12:19:26.459Z,28.12
2018-09-15T12:21:54.262Z,30.13
2018-09-15T12:24:22.056Z,29.59
2018-09-15T12:26:49.884Z,30.81
2018-09-15T12:29:18.092Z,30.67
2018-09-15T12:31:46.083Z,30.58
2018-09-15T12:34:13.915Z,28.79
2018-09-15T12:36:44.136Z,28.57
2018-09-15T12:39:11.939Z,31.39
2018-09-15T12:41:39.849Z,30.22
2018-09-15T12:44:07.683Z,29.20
2018-09-15T12:46:35.503Z,30.24
2018-09-15T12:49:03.308Z,30.62
2018-09-15T12:51:31.153Z,28.95
2018-09-15T12:53:58.972Z,29.56
2018-09-15T12:56:26.779Z,29.58
2018-09-15T12:58:54.552Z,29.48
2018-09-15T13:01:25.096Z,30.12
2018-09-15T13:03:52.975Z,30.25
2018-09-15T13:06:20.770Z,29.92
2018-09-15T13:08:48.592Z,29.25
2018-09-15T13:11:16.371Z,30.01
2018-09-15T13:13:44.203Z,29.62
2018-09-15T13:16:12.055Z,28.33
2018-09-15T13:18:39.855Z,29.40
2018-09-15T13:21:07.707Z,28.75
2018-09-15T13:23:35.643Z,29.84
2018-09-15T13:26:03.476Z,29.31
2018-09-15T13:28:31.262Z,29.32
2018-09-15T13:30:59.124Z,28.95
2018-09-15T13:33:26.944Z,29.16
2018-09-15T13:35:54.787Z,30.09
2018-09-15T13:38:22.663Z,29.23
2018-09-15T13:40:50.503Z,29.03
2018-09-15T13:43:18.358Z,29.36
2018-09-15T13:45:46.190Z,28.32
2018-09-15T13:48:14.024Z,28.45
2018-09-15T13:50:41.895Z,28.85
2018-09-15T13:53:09.760Z,30.63
2018-09-15T13:55:37.512Z,29.92
2018-09-15T13:58:05.664Z,29.39
2018-09-15T14:00:33.513Z,29.07
2018-09-15T14:03:01.407Z,29.31
2018-09-15T14:05:29.212Z,31.19
2018-09-15T14:07:56.951Z,31.33
2018-09-15T14:10:24.771Z,30.37
2018-09-15T14:12:52.525Z,31.72
2018-09-15T14:15:20.378Z,31.37
2018-09-15T14:17:48.283Z,30.35
2018-09-15T14:20:16.127Z,30.96
2018-09-15T14:22:43.903Z,30.49
2018-09-15T14:25:11.714Z,30.54
2018-09-15T14:27:39.607Z,30.78
2018-09-15T14:30:07.427Z,31.25
2018-09-15T14:32:35.293Z,31.06
2018-09-15T14:35:05.780Z,31.15
2018-09-15T14:37:33.560Z,31.87
2018-09-15T14:40:01.763Z,31.62
2018-09-15T14:42:29.644Z,31.53
2018-09-15T14:44:57.514Z,31.38
2018-09-15T14:47:25.382Z,32.44
2018-09-15T14:49:53.203Z,32.18
2018-09-15T14:52:21.065Z,32.50
2018-09-15T14:54:48.844Z,31.19
2018-09-15T14:57:16.698Z,31.79
2018-09-15T14:59:44.508Z,31.29
2018-09-15T15:02:12.287Z,31.41
2018-09-15T15:04:40.157Z,31.89
2018-09-15T15:07:08.210Z,31.85
2018-09-15T15:09:36.123Z,29.93
2018-09-15T15:12:04.028Z,29.19
2018-09-15T15:14:31.827Z,27.78
2018-09-15T15:16:59.868Z,30.14
2018-09-15T15:19:27.717Z,30.41
2018-09-15T15:21:55.479Z,30.90
2018-09-15T15:24:23.247Z,31.79
2018-09-15T15:26:51.273Z,31.31
2018-09-15T15:29:19.092Z,30.83
2018-09-15T15:31:46.999Z,29.63
2018-09-15T15:34:15.887Z,31.09
2018-09-15T15:36:43.727Z,31.56
2018-09-15T15:39:11.812Z,31.06
2018-09-15T15:41:39.576Z,31.12
2018-09-15T15:44:07.526Z,32.06
2018-09-15T15:46:35.495Z,31.64
2018-09-15T15:49:03.736Z,32.31
2018-09-15T15:51:31.953Z,31.71
2018-09-15T15:53:59.847Z,32.79
2018-09-15T15:56:27.897Z,32.66
2018-09-15T15:58:56.257Z,33.65
2018-09-15T16:01:23.984Z,33.12
2018-09-15T16:03:52.235Z,32.73
2018-09-15T16:06:20.515Z,33.47
2018-09-15T16:08:50.539Z,32.59
2018-09-15T16:11:18.999Z,33.62
2018-09-15T16:13:47.134Z,33.54
2018-09-15T16:16:15.038Z,34.44
2018-09-15T16:18:43.114Z,33.13
2018-09-15T16:21:11.093Z,33.92
2018-09-15T16:23:39.208Z,33.57
2018-09-15T16:26:07.783Z,33.31
2018-09-15T16:28:35.934Z,32.75
2018-09-15T16:31:03.991Z,32.88
2018-09-15T16:33:32.226Z,33.67
2018-09-15T16:36:03.161Z,34.15
2018-09-15T16:38:31.140Z,35.46
2018-09-15T16:40:59.216Z,34.79
2018-09-15T16:43:27.136Z,34.49
2018-09-15T16:45:55.477Z,34.13
2018-09-15T16:48:23.926Z,34.92
2018-09-15T16:50:51.760Z,34.51
2018-09-15T16:53:19.743Z,35.86
2018-09-15T16:55:47.773Z,35.65
2018-09-15T16:58:15.614Z,35.33
2018-09-15T17:00:43.415Z,35.11
2018-09-15T17:03:11.498Z,35.77
2018-09-15T17:05:39.821Z,35.28
2018-09-15T17:08:08.172Z,35.66
2018-09-15T17:10:37.027Z,35.58
2018-09-15T17:13:05.120Z,36.95
2018-09-15T17:15:33.299Z,36.69
2018-09-15T17:18:01.126Z,36.84
2018-09-15T17:20:29.624Z,36.92
2018-09-15T17:22:57.680Z,37.45
2018-09-15T17:25:25.645Z,37.27
2018-09-15T17:27:53.955Z,37.42
2018-09-15T17:30:22.055Z,37.85
2018-09-15T17:32:49.955Z,38.10
2018-09-15T17:35:17.964Z,38.40
2018-09-15T17:37:45.888Z,37.96
2018-09-15T17:40:13.740Z,39.34
2018-09-15T17:42:41.609Z,38.86
2018-09-15T17:45:09.478Z,39.16
2018-09-15T17:47:37.259Z,39.32
2018-09-15T17:50:05.055Z,39.60
2018-09-15T17:52:32.931Z,40.08
2018-09-15T17:55:01.440Z,40.61
2018-09-15T17:57:31.689Z,40.49
2018-09-15T17:59:59.614Z,41.30
2018-09-15T18:02:28.521Z,41.68
2018-09-15T18:04:57.238Z,41.48
2018-09-15T18:07:24.971Z,42.52
2018-09-15T18:09:52.909Z,42.88
2018-09-15T18:12:20.765Z,42.67
2018-09-15T18:14:48.591Z,43.73
2018-09-15T18:17:16.480Z,43.86
2018-09-15T18:19:44.424Z,44.66
2018-09-15T18:22:12.245Z,44.60
2018-09-15T18:24:40.032Z,44.78
2018-09-15T18:27:07.875Z,45.16
2018-09-15T18:29:36.278Z,45.47
2018-09-15T18:32:04.225Z,45.86
2018-09-15T18:34:32.074Z,46.35
2018-09-15T18:37:00.183Z,46.24
2018-09-15T18:39:28.150Z,47.67
2018-09-15T18:41:56.944Z,48.10
2018-09-15T18:44:24.903Z,47.83
2018-09-15T18:46:53.059Z,49.20
2018-09-15T18:49:20.946Z,48.43
2018-09-15T18:51:48.764Z,49.66
2018-09-15T18:54:16.592Z,49.37
2018-09-15T18:56:44.472Z,49.64
2018-09-15T18:59:12.260Z,49.97
2018-09-15T19:01:40.007Z,49.59
2018-09-15T19:04:07.804Z,49.26
2018-09-15T19:06:35.649Z,50.19
2018-09-15T19:09:06.293Z,51.30
2018-09-15T19:11:34.218Z,50.11
2018-09-15T19:14:02.123Z,50.43
2018-09-15T19:16:30.060Z,49.97
2018-09-15T19:18:57.963Z,49.68
2018-09-15T19:21:25.872Z,49.62
2018-09-15T19:23:53.764Z,48.80
2018-09-15T19:26:21.508Z,49.31
2018-09-15T19:28:49.304Z,48.97
2018-09-15T19:31:17.116Z,49.85
2018-09-15T19:33:44.959Z,48.96
2018-09-15T19:36:12.871Z,52.58
2018-09-15T19:38:40.740Z,51.44
2018-09-15T19:41:08.723Z,51.88
2018-09-15T19:43:36.599Z,51.92
2018-09-15T19:46:09.210Z,50.87
2018-09-15T19:48:37.071Z,48.44
2018-09-15T19:51:05.123Z,48.54
2018-09-15T19:53:32.979Z,48.70
2018-09-15T19:56:00.820Z,53.20
2018-09-15T19:58:30.299Z,54.48
2018-09-15T20:00:58.752Z,56.73
2018-09-15T20:03:26.568Z,55.63
2018-09-15T20:05:54.596Z,58.58
2018-09-15T20:08:22.647Z,59.43
2018-09-15T20:10:50.797Z,57.79
2018-09-15T20:13:18.567Z,55.27
2018-09-15T20:15:44.977Z,59.71
2018-09-15T20:18:11.403Z,59.71
2018-09-15T20:20:37.849Z,58.62
2018-09-15T20:23:05.795Z,56.20
2018-09-15T20:25:33.700Z,57.38
2018-09-15T20:28:01.658Z,55.48
2018-09-15T20:30:29.916Z,56.17
2018-09-15T20:32:57.753Z,58.22
2018-09-15T20:35:25.496Z,57.74
2018-09-15T20:37:53.319Z,57.70
2018-09-15T20:40:21.238Z,59.29
2018-09-15T20:42:49.046Z,58.22
2018-09-15T20:45:16.775Z,59.10
2018-09-15T20:47:44.636Z,57.28
2018-09-15T20:50:12.418Z,58.93
2018-09-15T20:52:40.313Z,59.95
2018-09-15T20:55:10.582Z,58.09
2018-09-15T20:57:38.432Z,57.08
2018-09-15T21:00:07.953Z,57.84
2018-09-15T21:02:35.984Z,57.19
2018-09-15T21:05:07.314Z,62.55
2018-09-15T21:07:35.152Z,55.75
2018-09-15T21:10:03.194Z,55.71
2018-09-15T21:12:30.991Z,58.23
2018-09-15T21:14:58.780Z,56.63
2018-09-15T21:17:26.575Z,56.45
2018-09-15T21:19:54.380Z,55.91
2018-09-15T21:22:22.127Z,56.03
2018-09-15T21:24:49.945Z,57.68
2018-09-15T21:27:17.790Z,56.59
2018-09-15T21:29:46.358Z,57.93
2018-09-15T21:32:14.358Z,58.38
2018-09-15T21:34:42.167Z,57.82
2018-09-15T21:37:13.596Z,59.48
2018-09-15T21:39:41.482Z,60.98
2018-09-15T21:42:09.353Z,62.40
2018-09-15T21:44:37.220Z,58.06
2018-09-15T21:47:05.268Z,58.06
2018-09-15T21:49:33.120Z,57.96
2018-09-15T21:52:00.882Z,56.84
2018-09-15T21:54:28.690Z,57.44
2018-09-15T21:56:56.508Z,56.48
2018-09-15T21:59:24.360Z,59.35
2018-09-15T22:01:52.152Z,58.13
2018-09-15T22:04:21.064Z,59.94
2018-09-15T22:06:50.307Z,59.96
2018-09-15T22:09:18.221Z,58.85
2018-09-15T22:11:45.946Z,65.13
2018-09-15T22:14:13.703Z,63.16
2018-09-15T22:16:42.039Z,61.02
2018-09-15T22:19:09.864Z,63.92
2018-09-15T22:21:37.636Z,60.22
2018-09-15T22:24:06.109Z,63.51
2018-09-15T22:26:33.988Z,65.66
2018-09-15T22:29:02.055Z,66.42
2018-09-15T22:31:29.889Z,66.22
2018-09-15T22:33:58.431Z,67.58
2018-09-15T22:36:26.199Z,63.27
2018-09-15T22:38:54.048Z,68.04
2018-09-15T22:41:21.910Z,64.46
2018-09-15T22:43:49.964Z,67.36
2018-09-15T22:46:17.834Z,68.14
2018-09-15T22:48:45.660Z,64.32
2018-09-15T22:51:13.654Z,66.42
2018-09-15T22:53:41.663Z,65.26
2018-09-15T22:56:09.513Z,65.23
2018-09-15T22:58:37.428Z,68.21
2018-09-15T23:01:14.076Z,66.62
2018-09-15T23:03:43.867Z,65.03
2018-09-15T23:06:11.719Z,65.88
2018-09-15T23:08:40.315Z,64.65
2018-09-15T23:11:08.546Z,67.17
2018-09-15T23:13:36.646Z,66.32
2018-09-15T23:16:04.615Z,66.67
2018-09-15T23:18:32.445Z,67.20
2018-09-15T23:21:00.289Z,67.23
2018-09-15T23:23:28.128Z,65.11
2018-09-15T23:25:56.070Z,66.56
2018-09-15T23:28:23.849Z,66.36
2018-09-15T23:30:51.634Z,69.03
2018-09-15T23:33:19.517Z,68.67
2018-09-15T23:35:47.311Z,68.05
2018-09-15T23:38:15.141Z,65.44
2018-09-15T23:40:42.987Z,67.37
2018-09-15T23:43:10.748Z,68.40
2018-09-15T23:45:38.568Z,64.98
2018-09-15T23:48:06.387Z,65.12
2018-09-15T23:50:34.227Z,65.88
2018-09-15T23:53:02.090Z,68.32
2018-09-15T23:55:29.919Z,65.47
2018-09-15T23:58:04.547Z,64.87
